createdAt,value
2017-09-21T00:00:20.470Z,8.67
2017-09-21T00:02:47.986Z,9.27
2017-09-21T00:05:15.490Z,9.87
2017-09-21T00:07:43.011Z,8.07
2017-09-21T00:10:10.507Z,7.53
2017-09-21T00:12:38.007Z,8.07
2017-09-21T00:15:06.287Z,8.20
2017-09-21T00:17:33.791Z,8.70
2017-09-21T00:20:01.308Z,7.30
2017-09-21T00:22:28.807Z,6.77
2017-09-21T00:24:56.319Z,7.87
2017-09-21T00:27:24.587Z,8.80
2017-09-21T00:29:52.872Z,7.83
2017-09-21T00:32:21.134Z,7.03
2017-09-21T00:34:49.414Z,7.40
2017-09-21T00:37:17.674Z,8.13
2017-09-21T00:39:45.199Z,8.00
2017-09-21T00:42:12.698Z,7.87
2017-09-21T00:44:40.983Z,7.83
2017-09-21T00:47:09.246Z,7.53
2017-09-21T00:49:36.763Z,8.37
2017-09-21T00:52:04.259Z,8.37
2017-09-21T00:54:31.775Z,7.70
2017-09-21T00:56:59.271Z,7.77
2017-09-21T00:59:26.792Z,7.80
2017-09-21T01:01:54.297Z,7.47
2017-09-21T01:04:22.590Z,7.63
2017-09-21T01:06:50.859Z,7.33
2017-09-21T01:09:19.164Z,8.47
2017-09-21T01:11:46.666Z,7.50
2017-09-21T01:14:14.175Z,7.93
2017-09-21T01:16:41.691Z,8.00
2017-09-21T01:19:09.203Z,8.03
2017-09-21T01:21:36.718Z,8.30
2017-09-21T01:24:04.983Z,7.57
2017-09-21T01:26:34.113Z,8.50
2017-09-21T01:29:01.623Z,7.90
2017-09-21T01:31:29.144Z,8.13
2017-09-21T01:33:56.638Z,7.40
2017-09-21T01:36:24.159Z,7.60
2017-09-21T01:38:51.660Z,7.87
2017-09-21T01:41:19.179Z,7.40
2017-09-21T01:43:46.682Z,7.97
2017-09-21T01:46:14.207Z,8.30
2017-09-21T01:48:41.707Z,8.53
2017-09-21T01:51:09.231Z,8.60
2017-09-21T01:53:36.732Z,7.63
2017-09-21T01:56:05.011Z,9.10
2017-09-21T01:58:33.270Z,7.67
2017-09-21T02:01:00.788Z,7.80
2017-09-21T02:03:28.287Z,8.33
2017-09-21T02:05:55.819Z,7.30
2017-09-21T02:08:23.315Z,8.30
2017-09-21T02:10:51.579Z,7.80
2017-09-21T02:13:19.094Z,7.90
2017-09-21T02:15:46.594Z,8.30
2017-09-21T02:18:14.112Z,7.50
2017-09-21T02:20:42.383Z,8.00
2017-09-21T02:23:09.904Z,7.83
2017-09-21T02:25:38.167Z,7.10
2017-09-21T02:28:06.447Z,7.20
2017-09-21T02:30:34.712Z,7.77
2017-09-21T02:33:02.240Z,7.13
2017-09-21T02:35:29.749Z,8.47
2017-09-21T02:37:58.030Z,7.90
2017-09-21T02:40:26.299Z,7.53
2017-09-21T02:42:54.579Z,6.80
2017-09-21T02:45:22.843Z,7.10
2017-09-21T02:47:51.128Z,7.30
2017-09-21T02:50:19.404Z,7.57
2017-09-21T02:52:47.695Z,7.87
2017-09-21T02:55:15.196Z,6.87
2017-09-21T02:57:42.715Z,6.90
2017-09-21T03:00:10.210Z,7.30
2017-09-21T03:02:37.723Z,6.27
2017-09-21T03:05:05.235Z,7.07
2017-09-21T03:07:32.756Z,8.00
2017-09-21T03:10:00.254Z,7.30
2017-09-21T03:12:27.751Z,7.13
2017-09-21T03:14:55.266Z,7.30
2017-09-21T03:17:22.775Z,7.17
2017-09-21T03:19:50.291Z,7.00
2017-09-21T03:22:17.787Z,7.77
2017-09-21T03:24:45.311Z,6.87
2017-09-21T03:27:12.815Z,7.60
2017-09-21T03:29:40.333Z,7.60
2017-09-21T03:32:07.996Z,7.00
2017-09-21T03:34:36.298Z,7.63
2017-09-21T03:37:03.799Z,7.43
2017-09-21T03:39:31.329Z,7.57
2017-09-21T03:41:58.835Z,7.33
2017-09-21T03:44:26.352Z,6.93
2017-09-21T03:46:53.868Z,8.37
2017-09-21T03:49:22.163Z,7.17
2017-09-21T03:51:50.431Z,7.63
2017-09-21T03:54:18.707Z,9.47
2017-09-21T03:56:46.968Z,8.83
2017-09-21T03:59:14.488Z,8.30
2017-09-21T04:01:42.769Z,8.07
2017-09-21T04:04:10.287Z,8.70
2017-09-21T04:06:37.785Z,8.27
2017-09-21T04:09:05.318Z,7.83
2017-09-21T04:11:32.820Z,6.83
2017-09-21T04:14:00.318Z,7.67
2017-09-21T04:16:27.835Z,6.70
2017-09-21T04:18:55.343Z,7.07
2017-09-21T04:21:22.858Z,6.00
2017-09-21T04:23:50.364Z,7.23
2017-09-21T04:26:17.888Z,7.37
2017-09-21T04:28:46.156Z,6.90
2017-09-21T04:31:13.675Z,6.33
2017-09-21T04:33:41.167Z,7.17
2017-09-21T04:36:08.683Z,6.33
2017-09-21T04:38:36.185Z,6.17
2017-09-21T04:41:03.707Z,7.80
2017-09-21T04:43:31.204Z,6.40
2017-09-21T04:45:59.116Z,7.23
2017-09-21T04:48:26.618Z,7.20
2017-09-21T04:50:54.139Z,6.77
2017-09-21T04:53:21.646Z,7.73
2017-09-21T04:55:49.172Z,7.00
2017-09-21T04:58:16.670Z,7.93
2017-09-21T05:00:45.022Z,6.43
2017-09-21T05:03:12.575Z,7.40
2017-09-21T05:05:40.165Z,7.30
2017-09-21T05:08:08.480Z,8.47
2017-09-21T05:10:36.071Z,6.80
2017-09-21T05:13:04.407Z,7.30
2017-09-21T05:15:31.911Z,7.13
2017-09-21T05:17:59.427Z,7.80
2017-09-21T05:20:26.932Z,8.03
2017-09-21T05:22:54.443Z,8.00
2017-09-21T05:25:21.947Z,7.17
2017-09-21T05:27:49.463Z,8.40
2017-09-21T05:30:16.963Z,8.10
2017-09-21T05:32:45.003Z,7.00
2017-09-21T05:35:12.514Z,7.33
2017-09-21T05:37:40.795Z,6.90
2017-09-21T05:40:09.058Z,6.67
2017-09-21T05:42:36.589Z,6.33
2017-09-21T05:45:04.096Z,6.47
2017-09-21T05:47:32.383Z,5.87
2017-09-21T05:49:59.887Z,6.60
2017-09-21T05:52:27.407Z,6.70
2017-09-21T05:54:54.919Z,6.70
2017-09-21T05:57:22.434Z,6.63
2017-09-21T05:59:49.939Z,6.13
2017-09-21T06:02:17.450Z,5.93
2017-09-21T06:04:44.951Z,6.27
2017-09-21T06:07:12.471Z,6.43
2017-09-21T06:09:39.971Z,6.70
2017-09-21T06:12:07.503Z,6.80
2017-09-21T06:14:35.015Z,7.63
2017-09-21T06:17:02.516Z,6.83
2017-09-21T06:19:30.790Z,5.80
2017-09-21T06:21:58.292Z,6.60
2017-09-21T06:24:26.589Z,6.00
2017-09-21T06:26:54.092Z,6.10
2017-09-21T06:29:21.603Z,6.50
2017-09-21T06:31:49.108Z,6.23
2017-09-21T06:34:16.627Z,6.10
2017-09-21T06:36:44.131Z,5.70
2017-09-21T06:39:11.643Z,5.17
2017-09-21T06:41:39.146Z,4.87
2017-09-21T06:44:06.664Z,5.83
2017-09-21T06:46:34.164Z,5.10
2017-09-21T06:49:01.687Z,6.30
2017-09-21T06:51:29.183Z,6.10
2017-09-21T06:53:56.698Z,6.70
2017-09-21T06:56:24.199Z,7.63
2017-09-21T06:58:51.715Z,6.60
2017-09-21T07:01:19.211Z,6.33
2017-09-21T07:03:46.723Z,6.50
2017-09-21T07:06:14.227Z,6.60
2017-09-21T07:08:41.744Z,5.97
2017-09-21T07:11:09.239Z,5.70
2017-09-21T07:13:36.739Z,6.27
2017-09-21T07:16:04.313Z,5.50
2017-09-21T07:18:31.880Z,5.37
2017-09-21T07:20:59.400Z,5.93
2017-09-21T07:23:27.672Z,6.13
2017-09-21T07:25:55.958Z,5.50
2017-09-21T07:28:24.227Z,4.30
2017-09-21T07:30:52.515Z,5.23
2017-09-21T07:33:20.027Z,4.70
2017-09-21T07:35:47.543Z,4.87
2017-09-21T07:38:15.043Z,4.43
2017-09-21T07:40:42.565Z,4.03
2017-09-21T07:43:10.071Z,3.83
2017-09-21T07:45:37.583Z,3.70
2017-09-21T07:48:05.083Z,3.63
2017-09-21T07:50:32.598Z,3.90
2017-09-21T07:53:00.108Z,3.47
2017-09-21T07:55:27.624Z,4.00
2017-09-21T07:57:55.127Z,4.90
2017-09-21T08:00:22.649Z,4.13
2017-09-21T08:02:50.156Z,4.10
2017-09-21T08:05:18.434Z,5.10
2017-09-21T08:07:46.703Z,5.27
2017-09-21T08:10:14.239Z,4.70
2017-09-21T08:12:41.743Z,4.93
2017-09-21T08:15:09.242Z,5.20
2017-09-21T08:17:36.758Z,5.07
2017-09-21T08:20:04.266Z,6.73
2017-09-21T08:22:31.787Z,6.17
2017-09-21T08:24:59.291Z,6.60
2017-09-21T08:27:26.803Z,6.77
2017-09-21T08:29:54.351Z,9.00
2017-09-21T08:32:21.932Z,10.83
2017-09-21T08:34:49.447Z,8.70
2017-09-21T08:37:17.811Z,8.60
2017-09-21T08:39:45.322Z,9.30
2017-09-21T08:42:12.847Z,9.70
2017-09-21T08:44:41.122Z,10.10
2017-09-21T08:47:09.416Z,10.77
2017-09-21T08:49:36.928Z,9.40
2017-09-21T08:52:04.760Z,10.27
2017-09-21T08:54:32.269Z,9.80
2017-09-21T08:56:59.790Z,10.73
2017-09-21T08:59:27.290Z,11.47
2017-09-21T09:01:54.810Z,12.50
2017-09-21T09:04:22.318Z,11.70
2017-09-21T09:06:50.615Z,10.10
2017-09-21T09:09:18.123Z,9.93
2017-09-21T09:11:45.626Z,9.93
2017-09-21T09:14:13.142Z,9.67
2017-09-21T09:16:40.648Z,9.40
2017-09-21T09:19:08.175Z,8.27
2017-09-21T09:21:35.675Z,8.33
2017-09-21T09:24:03.199Z,7.13
2017-09-21T09:26:31.468Z,6.40
2017-09-21T09:28:59.763Z,7.53
2017-09-21T09:31:27.310Z,7.50
2017-09-21T09:33:54.820Z,7.80
2017-09-21T09:36:22.323Z,7.40
2017-09-21T09:38:50.620Z,7.80
2017-09-21T09:41:18.224Z,7.77
2017-09-21T09:43:45.784Z,6.80
2017-09-21T09:46:13.306Z,6.73
2017-09-21T09:48:40.898Z,7.27
2017-09-21T09:51:08.459Z,7.43
2017-09-21T09:53:35.974Z,6.00
2017-09-21T09:56:03.481Z,6.60
2017-09-21T09:58:30.999Z,6.57
2017-09-21T10:00:58.502Z,7.23
2017-09-21T10:03:26.023Z,6.60
2017-09-21T10:05:53.523Z,6.17
2017-09-21T10:08:21.058Z,6.40
2017-09-21T10:10:48.561Z,5.60
2017-09-21T10:13:16.840Z,6.20
2017-09-21T10:15:45.123Z,6.27
2017-09-21T10:18:13.382Z,6.70
2017-09-21T10:20:41.747Z,5.80
2017-09-21T10:23:09.251Z,6.43
2017-09-21T10:25:36.771Z,6.40
2017-09-21T10:28:04.271Z,6.53
2017-09-21T10:30:31.791Z,5.80
2017-09-21T10:32:59.295Z,6.03
2017-09-21T10:35:26.816Z,5.10
2017-09-21T10:37:55.152Z,5.67
2017-09-21T10:40:22.674Z,6.70
2017-09-21T10:42:50.183Z,4.70
2017-09-21T10:45:17.700Z,4.83
2017-09-21T10:47:45.208Z,4.93
2017-09-21T10:50:12.735Z,5.70
2017-09-21T10:52:40.262Z,4.93
2017-09-21T10:55:07.841Z,5.30
2017-09-21T10:57:35.436Z,5.00
2017-09-21T11:00:03.821Z,4.90
2017-09-21T11:02:31.886Z,4.60
2017-09-21T11:05:00.332Z,5.20
2017-09-21T11:07:27.955Z,3.93
2017-09-21T11:09:55.515Z,3.93
2017-09-21T11:12:23.779Z,4.73
2017-09-21T11:14:51.275Z,4.50
2017-09-21T11:17:18.790Z,4.60
2017-09-21T11:19:46.286Z,4.40
2017-09-21T11:22:13.810Z,4.90
2017-09-21T11:24:41.311Z,4.37
2017-09-21T11:27:08.835Z,4.50
2017-09-21T11:29:37.110Z,5.00
2017-09-21T11:32:05.392Z,3.87
2017-09-21T11:34:33.663Z,4.23
2017-09-21T11:37:01.955Z,4.20
2017-09-21T11:39:29.455Z,4.00
2017-09-21T11:41:57.752Z,5.87
2017-09-21T11:44:25.250Z,4.57
2017-09-21T11:46:52.810Z,4.23
2017-09-21T11:49:21.214Z,3.57
2017-09-21T11:51:48.765Z,4.07
2017-09-21T11:54:16.279Z,4.13
2017-09-21T11:56:43.817Z,3.67
2017-09-21T11:59:11.323Z,3.83
2017-09-21T12:01:39.159Z,4.27
2017-09-21T12:04:06.677Z,4.10
2017-09-21T12:06:34.196Z,3.87
2017-09-21T12:09:02.462Z,3.77
2017-09-21T12:11:30.767Z,4.37
2017-09-21T12:13:58.267Z,3.67
2017-09-21T12:16:25.775Z,3.83
2017-09-21T12:18:53.294Z,4.63
2017-09-21T12:21:20.795Z,5.00
2017-09-21T12:23:48.346Z,3.70
2017-09-21T12:26:16.591Z,3.30
2017-09-21T12:28:44.115Z,3.20
2017-09-21T12:31:11.615Z,3.77
2017-09-21T12:33:39.911Z,3.37
2017-09-21T12:36:07.419Z,3.17
2017-09-21T12:38:34.935Z,3.30
2017-09-21T12:41:02.445Z,3.83
2017-09-21T12:43:29.972Z,3.40
2017-09-21T12:45:57.824Z,3.30
2017-09-21T12:48:25.349Z,3.40
2017-09-21T12:50:53.624Z,3.20
2017-09-21T12:53:21.924Z,3.23
2017-09-21T12:55:49.432Z,3.20
2017-09-21T12:58:16.947Z,3.00
2017-09-21T13:00:44.443Z,3.70
2017-09-21T13:03:11.964Z,3.10
2017-09-21T13:05:39.467Z,2.97
2017-09-21T13:08:07.052Z,3.53
2017-09-21T13:10:34.580Z,2.93
2017-09-21T13:15:37.756Z,2.90
2017-09-21T13:18:05.300Z,3.00
2017-09-21T13:20:32.808Z,3.20
2017-09-21T13:23:00.307Z,3.10
2017-09-21T13:25:28.591Z,3.33
2017-09-21T13:27:56.105Z,3.30
2017-09-21T13:30:23.620Z,3.20
2017-09-21T13:32:51.128Z,3.07
2017-09-21T13:35:18.652Z,3.07
2017-09-21T13:37:46.160Z,2.57
2017-09-21T13:40:14.446Z,2.90
2017-09-21T13:42:42.711Z,3.63
2017-09-21T13:45:10.990Z,3.50
2017-09-21T13:47:39.255Z,3.60
2017-09-21T13:50:06.807Z,3.90
2017-09-21T13:52:34.311Z,4.40
2017-09-21T13:55:01.828Z,4.20
2017-09-21T13:57:29.327Z,5.30
2017-09-21T13:59:56.840Z,4.73
2017-09-21T14:02:24.342Z,5.50
2017-09-21T14:04:51.864Z,4.50
2017-09-21T14:07:19.366Z,4.80
2017-09-21T14:09:46.892Z,3.93
2017-09-21T14:12:15.164Z,4.00
2017-09-21T14:14:43.727Z,3.93
2017-09-21T14:17:11.292Z,4.10
2017-09-21T14:19:38.818Z,4.93
2017-09-21T14:22:06.411Z,5.40
2017-09-21T14:24:33.919Z,5.97
2017-09-21T14:27:01.447Z,4.13
2017-09-21T14:29:29.711Z,3.37
2017-09-21T14:31:57.227Z,3.07
2017-09-21T14:34:24.728Z,3.77
2017-09-21T14:36:53.014Z,3.30
2017-09-21T14:39:21.286Z,3.77
2017-09-21T14:41:49.571Z,3.20
2017-09-21T14:44:17.835Z,3.03
2017-09-21T14:46:46.120Z,3.27
2017-09-21T14:49:14.387Z,3.40
2017-09-21T14:51:42.676Z,3.20
2017-09-21T14:54:10.939Z,3.90
2017-09-21T14:56:39.222Z,3.23
2017-09-21T14:59:07.491Z,3.83
2017-09-21T15:01:35.775Z,3.80
2017-09-21T15:04:04.048Z,3.33
2017-09-21T15:06:32.334Z,3.60
2017-09-21T15:09:00.604Z,3.73
2017-09-21T15:11:28.896Z,3.03
2017-09-21T15:13:56.403Z,3.50
2017-09-21T15:16:23.919Z,3.43
2017-09-21T15:18:51.427Z,3.60
2017-09-21T15:21:18.932Z,4.00
2017-09-21T15:23:46.456Z,3.77
2017-09-21T15:26:13.963Z,4.30
2017-09-21T15:28:41.488Z,3.90
2017-09-21T15:31:09.751Z,4.60
2017-09-21T15:33:38.039Z,3.13
2017-09-21T15:36:06.308Z,3.50
2017-09-21T15:38:34.586Z,3.37
2017-09-21T15:41:02.856Z,3.90
2017-09-21T15:43:31.146Z,4.10
2017-09-21T15:45:59.423Z,4.17
2017-09-21T15:48:27.712Z,3.23
2017-09-21T15:50:55.443Z,3.53
2017-09-21T15:53:22.964Z,3.77
2017-09-21T15:55:50.466Z,3.37
2017-09-21T15:58:18.755Z,5.13
2017-09-21T16:00:47.023Z,3.73
2017-09-21T16:03:15.307Z,4.77
2017-09-21T16:05:43.572Z,4.40
2017-09-21T16:08:11.860Z,3.47
2017-09-21T16:10:40.140Z,3.90
2017-09-21T16:13:07.663Z,4.10
2017-09-21T16:15:35.168Z,3.67
2017-09-21T16:18:02.695Z,3.73
2017-09-21T16:20:31.364Z,3.20
2017-09-21T16:22:58.866Z,4.23
2017-09-21T16:25:26.387Z,3.60
2017-09-21T16:27:53.887Z,3.77
2017-09-21T16:30:21.403Z,3.40
2017-09-21T16:32:48.931Z,3.30
2017-09-21T16:35:17.292Z,3.50
2017-09-21T16:37:44.834Z,4.00
2017-09-21T16:40:12.355Z,3.47
2017-09-21T16:42:39.855Z,4.40
2017-09-21T16:45:07.376Z,3.23
2017-09-21T16:47:34.887Z,4.10
2017-09-21T16:50:02.435Z,3.57
2017-09-21T16:52:29.931Z,3.87
2017-09-21T16:54:57.447Z,3.60
2017-09-21T16:57:24.955Z,3.93
2017-09-21T16:59:52.479Z,5.03
2017-09-21T17:02:19.982Z,4.60
2017-09-21T17:04:47.499Z,4.17
2017-09-21T17:07:14.999Z,4.30
2017-09-21T17:09:42.522Z,4.60
2017-09-21T17:12:10.027Z,7.20
2017-09-21T17:14:38.311Z,7.27
2017-09-21T17:17:06.578Z,5.87
2017-09-21T17:19:34.883Z,5.47
2017-09-21T17:22:02.387Z,5.27
2017-09-21T17:24:29.891Z,6.37
2017-09-21T17:26:57.413Z,4.40
2017-09-21T17:29:24.921Z,4.30
2017-09-21T17:31:52.444Z,5.03
2017-09-21T17:34:20.711Z,5.27
2017-09-21T17:36:48.236Z,5.50
2017-09-21T17:39:15.747Z,5.03
2017-09-21T17:41:44.054Z,4.87
2017-09-21T17:44:11.568Z,5.10
2017-09-21T17:46:39.859Z,5.07
2017-09-21T17:49:08.131Z,5.57
2017-09-21T17:51:36.415Z,5.70
2017-09-21T17:54:03.921Z,5.10
2017-09-21T17:56:31.448Z,5.83
2017-09-21T17:58:58.950Z,5.87
2017-09-21T18:01:26.483Z,17.90
2017-09-21T18:03:53.990Z,8.80
2017-09-21T18:06:22.556Z,7.20
2017-09-21T18:08:50.063Z,8.20
2017-09-21T18:11:17.591Z,15.87
2017-09-21T18:13:45.855Z,21.97
2017-09-21T18:16:13.391Z,25.43
2017-09-21T18:18:40.891Z,18.07
2017-09-21T18:21:08.447Z,20.20
2017-09-21T18:23:36.715Z,30.20
2017-09-21T18:26:05.283Z,19.70
2017-09-21T18:28:32.807Z,12.20
2017-09-21T18:31:00.608Z,10.83
2017-09-21T18:33:28.130Z,11.80
2017-09-21T18:35:55.628Z,8.90
2017-09-21T18:38:23.152Z,9.57
2017-09-21T18:40:50.655Z,17.00
2017-09-21T18:43:18.942Z,13.83
2017-09-21T18:45:47.215Z,39.00
2017-09-21T18:48:15.515Z,29.90
2017-09-21T18:50:43.087Z,12.07
2017-09-21T18:53:10.670Z,8.90
2017-09-21T18:55:38.939Z,7.50
2017-09-21T18:58:06.455Z,7.57
2017-09-21T19:00:33.959Z,11.60
2017-09-21T19:03:01.485Z,10.13
2017-09-21T19:05:28.987Z,19.20
2017-09-21T19:07:56.511Z,23.70
2017-09-21T19:10:24.019Z,16.10
2017-09-21T19:12:52.303Z,12.17
2017-09-21T19:15:20.567Z,18.93
2017-09-21T19:17:48.138Z,21.60
2017-09-21T19:20:16.413Z,21.60
2017-09-21T19:22:44.715Z,21.37
2017-09-21T19:25:12.228Z,18.77
2017-09-21T19:27:39.734Z,17.73
2017-09-21T19:30:07.307Z,12.23
2017-09-21T19:32:34.816Z,29.00
2017-09-21T19:35:03.162Z,31.33
2017-09-21T19:37:30.723Z,20.37
2017-09-21T19:39:58.249Z,14.63
2017-09-21T19:42:25.754Z,14.03
2017-09-21T19:44:53.330Z,16.00
2017-09-21T19:47:21.603Z,12.20
2017-09-21T19:49:49.124Z,12.80
2017-09-21T19:52:17.392Z,13.70
2017-09-21T19:54:44.915Z,13.40
2017-09-21T19:57:13.233Z,16.17
2017-09-21T19:59:40.871Z,12.80
2017-09-21T20:02:08.379Z,12.70
2017-09-21T20:04:35.900Z,13.47
2017-09-21T20:07:03.412Z,11.90
2017-09-21T20:09:31.704Z,12.47
2017-09-21T20:11:59.971Z,14.60
2017-09-21T20:14:28.260Z,16.30
2017-09-21T20:16:55.758Z,15.40
2017-09-21T20:19:23.280Z,16.17
2017-09-21T20:21:50.778Z,16.50
2017-09-21T20:24:18.299Z,16.77
2017-09-21T20:26:45.850Z,18.10
2017-09-21T20:29:13.353Z,16.90
2017-09-21T20:31:40.880Z,18.20
2017-09-21T20:34:08.377Z,17.43
2017-09-21T20:36:35.894Z,17.00
2017-09-21T20:39:03.416Z,17.70
2017-09-21T20:41:30.940Z,17.33
2017-09-21T20:43:58.443Z,17.77
2017-09-21T20:46:26.722Z,18.17
2017-09-21T20:48:54.990Z,17.10
2017-09-21T20:51:23.270Z,17.40
2017-09-21T20:53:51.545Z,17.10
2017-09-21T20:56:19.861Z,17.40
2017-09-21T20:58:47.368Z,16.73
2017-09-21T21:01:14.888Z,16.10
2017-09-21T21:03:42.405Z,16.37
2017-09-21T21:06:10.696Z,17.70
2017-09-21T21:08:38.205Z,15.70
2017-09-21T21:11:05.728Z,16.57
2017-09-21T21:13:33.232Z,16.37
2017-09-21T21:16:00.755Z,16.87
2017-09-21T21:18:28.259Z,15.87
2017-09-21T21:20:56.555Z,17.10
2017-09-21T21:23:24.064Z,18.27
2017-09-21T21:25:51.570Z,17.03
2017-09-21T21:28:19.093Z,17.57
2017-09-21T21:30:46.599Z,17.50
2017-09-21T21:33:14.111Z,17.63
2017-09-21T21:35:41.615Z,17.17
2017-09-21T21:38:09.145Z,17.80
2017-09-21T21:40:37.415Z,18.77
2017-09-21T21:43:04.939Z,17.30
2017-09-21T21:45:33.207Z,17.63
2017-09-21T21:48:00.718Z,18.17
2017-09-21T21:50:28.988Z,17.80
2017-09-21T21:52:57.275Z,15.87
2017-09-21T21:55:25.556Z,17.70
2017-09-21T21:57:53.075Z,18.00
2017-09-21T22:00:20.587Z,16.50
2017-09-21T22:02:48.124Z,16.10
2017-09-21T22:05:16.394Z,14.63
2017-09-21T22:07:44.678Z,13.27
2017-09-21T22:10:12.951Z,13.17
2017-09-21T22:12:41.234Z,12.53
2017-09-21T22:15:08.767Z,12.93
2017-09-21T22:17:36.282Z,14.10
2017-09-21T22:20:03.808Z,13.40
2017-09-21T22:22:32.075Z,14.90
2017-09-21T22:25:00.361Z,14.10
2017-09-21T22:27:28.626Z,13.40
2017-09-21T22:29:56.911Z,13.10
2017-09-21T22:32:25.179Z,13.83
2017-09-21T22:34:53.466Z,14.30
2017-09-21T22:37:20.975Z,13.63
2017-09-21T22:39:49.264Z,13.03
2017-09-21T22:42:16.762Z,12.53
2017-09-21T22:44:44.298Z,11.93
2017-09-21T22:47:12.578Z,13.00
2017-09-21T22:49:40.860Z,13.53
2017-09-21T22:52:09.147Z,13.80
2017-09-21T22:54:36.651Z,12.87
2017-09-21T22:57:04.165Z,12.90
2017-09-21T22:59:31.674Z,13.90
2017-09-21T23:01:59.187Z,13.80
2017-09-21T23:04:26.695Z,14.17
2017-09-21T23:06:54.215Z,14.23
2017-09-21T23:09:21.711Z,13.83
2017-09-21T23:11:49.243Z,14.60
2017-09-21T23:14:16.743Z,13.73
2017-09-21T23:16:44.259Z,14.37
2017-09-21T23:19:11.759Z,13.10
2017-09-21T23:21:39.319Z,12.80
2017-09-21T23:24:06.841Z,14.63
2017-09-21T23:26:34.374Z,13.00
2017-09-21T23:29:01.882Z,14.87
2017-09-21T23:31:29.407Z,14.93
2017-09-21T23:33:56.911Z,15.27
2017-09-21T23:36:24.432Z,15.03
2017-09-21T23:38:51.942Z,14.33
2017-09-21T23:41:20.236Z,15.77
2017-09-21T23:43:47.744Z,14.70
2017-09-21T23:46:15.283Z,14.90
2017-09-21T23:48:42.783Z,13.70
2017-09-21T23:51:11.051Z,14.37
2017-09-21T23:53:38.575Z,14.53
2017-09-21T23:56:06.078Z,13.00
2017-09-21T23:58:34.370Z,13.70
